Beira, Beira Airport (FQBR)

NameBeira Airport
CityBeira
CountryMozambique
ICAOFQBR
IATABEW
Altitude10 m
CoordinatesGoogle Map
Live Air TrafficLiveATC.net
METARFQBR 262100Z 11006KT 9999 FEW019 28/25 Q1016
2019-03-26 21:00:00 Wind: East (110°) 3.09 m/s - Visibility: > 10000 m - Temperature: 28 °C - Dew point: 25 °C - Humidity: 83.8% - Pressure: 1016 hPa
Statistics

The table below shows the detailed information of all flights to/from Beira, Beira Airport (FQBR).

Ident Aircraft Coming fromFrom Going toTo Owner nameOwnerDate
ZS-YAB - E190 - South African Airways SA8215 EMBRAER 190 E190 Beira, Mozambique (FQBR) FQBR
972 km
Olifants River Bridge, South Africa (FAOR) FAOR South African Airlink South African Airlink Mon, 18 Mar 2019 14:23:26 +0000 18/3/2019 2:23 pm
ZS-YAB - E190 - South African Airways SA8214 EMBRAER 190 E190 Olifants River Bridge, South Africa (FAOR) FAOR
708 km
Beira, Mozambique (FQBR) FQBR
272 km
South African Airlink South African Airlink Mon, 18 Mar 2019 11:34:36 +0000 18/3/2019 11:34 am
ZS-YAB - E190 - South African Airways SA8214 EMBRAER 190 E190 Olifants River Bridge, South Africa (FAOR) FAOR
67 km
Beira, Mozambique (FQBR) FQBR
913 km
South African Airlink South African Airlink Mon, 18 Mar 2019 10:51:16 +0000 18/3/2019 10:51 am
C9-MEX - E145 - LAM Mozambique Airlines TM109 HARBIN C-99 E145 Beira, Mozambique (FQBR) FQBR
463 km
Maputo, Mozambique (FQMA) FQMA
259 km
Mozambique Expresso Mozambique Expresso Wed, 13 Mar 2019 18:24:17 +0000 13/3/2019 6:24 pm